Larkinsburg, Illinois
Current Conditions -  °F | °C
As of 10:15 PM on Thursday 27 Nov 2014 (Local Time) from K1H2 Reporting Station
Haze Haze  
Wind Chill: 13°   Ceiling: Unl
Heat Index: 13°   Visibility: 2.5mi
Dew Point:   Wind: 0mph
Humidity: 84%   Direction: NA
Pressure: 30.45"   Gusts: NA
Location:  38.891°N, 88.6694°W
Report Text: K1H2 280415Z AUTO 00000KT 2 1/2SM BR CLR M11/M13 A3045 RMK AO2 T11081130
Loading
Personal Weather Stations






























Interactive Weather Map New forecast layout! Learn more

10-Day Weather Forecast

Advertisements
Track Severe Weather on mobile